Time;durP1;ratioP1;P1;durP2;ratioP2;P2;SDS_P1;SDS_P2;PMS_P1;PMS_P2;Temp;Humidity;BMP_temperature;BMP_pressure;BME280_temperature;BME280_humidity;BME280_pressure;Samples;Min_cycle;Max_cycle;Signal;HPM_P1;HPM_P2
2020/12/28 00:01:53;;;;;;;2.90;1.80;;;5.80;99.90;;;;;;5062250;28;20678;-76
2020/12/28 00:04:39;;;;;;;2.45;1.80;;;5.90;99.90;;;;;;5061713;28;20196;-76
2020/12/28 00:07:24;;;;;;;2.38;1.27;;;5.90;99.90;;;;;;5058982;28;20775;-74
2020/12/28 00:10:12;;;;;;;1.95;1.10;;;5.80;99.90;;;;;;5057801;28;20274;-76
2020/12/28 00:12:57;;;;;;;2.28;1.23;;;5.90;99.90;;;;;;5057079;28;20217;-75
2020/12/28 00:15:42;;;;;;;1.90;1.10;;;6.00;99.90;;;;;;5060275;28;20200;-75
2020/12/28 00:18:28;;;;;;;1.70;0.90;;;6.00;99.90;;;;;;5061851;28;20292;-74
2020/12/28 00:21:13;;;;;;;1.60;1.08;;;6.10;99.90;;;;;;5061930;28;20208;-76
2020/12/28 00:23:59;;;;;;;3.10;1.10;;;6.10;99.90;;;;;;5056053;28;20643;-75
2020/12/28 00:26:45;;;;;;;2.03;0.85;;;6.10;99.90;;;;;;5061197;28;20789;-75
2020/12/28 00:29:30;;;;;;;1.60;1.02;;;6.00;99.90;;;;;;5064068;28;20224;-76
2020/12/28 00:32:16;;;;;;;5.60;1.30;;;6.00;99.90;;;;;;5065566;28;20251;-75
2020/12/28 00:35:03;;;;;;;2.15;1.20;;;6.00;99.90;;;;;;5058850;28;20661;-74
2020/12/28 00:37:48;;;;;;;1.98;0.93;;;6.00;99.90;;;;;;5056507;28;20208;-75
2020/12/28 00:40:33;;;;;;;1.50;0.88;;;6.10;99.90;;;;;;5063925;28;20300;-75
2020/12/28 00:43:18;;;;;;;1.65;0.95;;;6.20;99.90;;;;;;5059570;28;20284;-75
2020/12/28 00:46:06;;;;;;;2.65;1.00;;;6.20;99.90;;;;;;5059975;28;20733;-76
2020/12/28 00:48:51;;;;;;;2.13;0.98;;;6.20;99.90;;;;;;5058281;28;20196;-75
2020/12/28 00:51:37;;;;;;;1.73;0.93;;;6.30;99.90;;;;;;5053818;28;20204;-75
2020/12/28 00:54:22;;;;;;;1.73;1.10;;;6.20;99.90;;;;;;5066770;28;20227;-76
2020/12/28 00:57:07;;;;;;;1.95;1.10;;;6.30;99.90;;;;;;5061538;28;20204;-76
2020/12/28 00:59:52;;;;;;;2.80;1.00;;;6.20;99.90;;;;;;5057114;28;20224;-75
2020/12/28 01:02:38;;;;;;;2.17;0.98;;;6.30;99.90;;;;;;5056688;28;20204;-76
2020/12/28 01:05:23;;;;;;;1.75;0.70;;;6.20;99.90;;;;;;5057159;28;20657;-76
2020/12/28 01:08:09;;;;;;;1.63;0.85;;;6.20;99.90;;;;;;5061951;28;20219;-75
2020/12/28 01:10:54;;;;;;;1.40;0.80;;;6.30;99.90;;;;;;5056763;28;20263;-76
2020/12/28 01:13:39;;;;;;;1.30;0.75;;;6.30;99.90;;;;;;5062357;28;20305;-75
2020/12/28 01:16:24;;;;;;;1.30;0.80;;;6.30;99.90;;;;;;5055247;28;20201;-75
2020/12/28 01:19:09;;;;;;;2.17;1.00;;;6.30;99.90;;;;;;5058296;28;20227;-76
2020/12/28 01:21:57;;;;;;;1.27;0.70;;;6.30;99.90;;;;;;5057895;28;20205;-75
2020/12/28 01:24:42;;;;;;;2.28;0.90;;;6.30;99.90;;;;;;5060801;28;20199;-76
2020/12/28 01:27:28;;;;;;;1.90;1.00;;;6.20;99.90;;;;;;5056660;28;20227;-75
2020/12/28 01:30:13;;;;;;;1.40;0.70;;;6.20;99.90;;;;;;5060524;28;20232;-76
2020/12/28 01:33:01;;;;;;;1.35;0.70;;;6.20;99.90;;;;;;5056268;28;20569;-75
2020/12/28 01:35:46;;;;;;;1.42;0.77;;;6.30;99.90;;;;;;5059289;28;20209;-75
2020/12/28 01:38:31;;;;;;;1.30;0.68;;;6.30;99.90;;;;;;5059147;28;20572;-74
2020/12/28 01:41:17;;;;;;;2.47;0.90;;;6.30;99.90;;;;;;5057795;28;20278;-76
2020/12/28 01:44:02;;;;;;;1.83;0.90;;;6.30;99.90;;;;;;5058335;28;20201;-75
2020/12/28 01:46:47;;;;;;;2.28;1.10;;;6.20;99.90;;;;;;5059488;28;20227;-75
2020/12/28 01:49:33;;;;;;;6.97;0.90;;;6.30;99.90;;;;;;5059278;28;20251;-74
2020/12/28 01:52:18;;;;;;;1.45;0.75;;;6.20;99.90;;;;;;5062953;28;20564;-76
2020/12/28 01:55:04;;;;;;;1.70;0.90;;;6.20;99.90;;;;;;5059603;28;20307;-75
2020/12/28 01:57:51;;;;;;;1.67;0.85;;;6.20;99.90;;;;;;5052668;28;20293;-75
2020/12/28 02:00:37;;;;;;;1.30;0.60;;;6.20;99.90;;;;;;5058299;28;20252;-76
2020/12/28 02:03:22;;;;;;;1.50;0.70;;;6.20;99.90;;;;;;5059937;28;20291;-76
2020/12/28 02:06:07;;;;;;;2.20;1.15;;;6.20;99.90;;;;;;5060307;28;20258;-75
2020/12/28 02:08:52;;;;;;;2.05;0.80;;;6.30;99.90;;;;;;5058870;28;20239;-75
2020/12/28 02:11:37;;;;;;;1.77;0.75;;;6.30;99.90;;;;;;5058299;28;20199;-76
2020/12/28 02:14:23;;;;;;;7.15;0.98;;;6.30;99.90;;;;;;5054247;28;20229;-76
2020/12/28 02:17:08;;;;;;;1.40;0.80;;;6.30;99.90;;;;;;5059872;28;20200;-76
2020/12/28 02:19:53;;;;;;;1.77;1.05;;;6.30;99.90;;;;;;5051987;28;20266;-76
2020/12/28 02:22:40;;;;;;;1.45;0.85;;;6.30;99.90;;;;;;5057114;28;20208;-75
2020/12/28 02:25:25;;;;;;;1.42;0.70;;;6.30;99.90;;;;;;5058122;28;20196;-75
2020/12/28 02:28:10;;;;;;;2.85;0.68;;;6.30;99.90;;;;;;5057830;28;20243;-75
2020/12/28 02:30:56;;;;;;;1.52;0.75;;;6.20;99.90;;;;;;5062486;28;20259;-76
2020/12/28 02:33:42;;;;;;;2.10;0.85;;;6.20;99.90;;;;;;5060903;28;20313;-75
2020/12/28 02:36:27;;;;;;;2.38;1.30;;;6.20;99.90;;;;;;5058247;28;20307;-75
2020/12/28 02:39:13;;;;;;;1.48;0.77;;;6.20;99.90;;;;;;5057766;28;20267;-75
2020/12/28 02:41:58;;;;;;;1.50;0.70;;;6.20;99.90;;;;;;5061149;28;20247;-76
2020/12/28 02:44:43;;;;;;;1.67;0.80;;;6.30;99.90;;;;;;5059420;28;20285;-76
2020/12/28 02:47:28;;;;;;;1.20;0.70;;;6.30;99.90;;;;;;5056334;28;20346;-75
2020/12/28 02:50:13;;;;;;;1.45;0.88;;;6.30;99.90;;;;;;5059448;28;20243;-75
2020/12/28 02:52:58;;;;;;;1.40;0.88;;;6.20;99.90;;;;;;5058719;28;20224;-75
2020/12/28 02:55:44;;;;;;;1.52;0.80;;;6.20;99.90;;;;;;5057030;28;20289;-76
2020/12/28 02:58:29;;;;;;;1.40;0.80;;;6.20;99.90;;;;;;5062262;28;20247;-76
2020/12/28 03:01:15;;;;;;;1.30;0.70;;;6.20;99.90;;;;;;5056933;28;20243;-76
2020/12/28 03:04:00;;;;;;;1.60;0.82;;;6.10;99.90;;;;;;5056609;28;20519;-75
2020/12/28 03:06:45;;;;;;;1.20;0.80;;;6.10;99.90;;;;;;5064432;28;20685;-75
2020/12/28 03:09:30;;;;;;;2.15;0.80;;;6.10;99.90;;;;;;5058691;28;20220;-76
2020/12/28 03:12:16;;;;;;;1.38;1.00;;;6.10;99.90;;;;;;5068016;28;20193;-76
2020/12/28 03:15:01;;;;;;;1.60;0.93;;;6.10;99.90;;;;;;5062929;28;20710;-75
2020/12/28 03:17:46;;;;;;;1.35;0.80;;;6.20;99.90;;;;;;5059519;28;20615;-76
2020/12/28 03:20:31;;;;;;;2.25;1.00;;;6.20;99.90;;;;;;5060171;28;20216;-75
2020/12/28 03:23:16;;;;;;;1.65;1.02;;;6.20;99.90;;;;;;5063070;28;20278;-75
2020/12/28 03:26:01;;;;;;;2.20;0.88;;;6.20;99.90;;;;;;5069004;28;20586;-75
2020/12/28 03:28:47;;;;;;;1.83;1.10;;;6.20;99.90;;;;;;5073514;28;20292;-75
2020/12/28 03:31:32;;;;;;;1.40;0.75;;;6.30;99.90;;;;;;5062010;28;20314;-75
2020/12/28 03:34:17;;;;;;;2.05;0.93;;;6.30;99.90;;;;;;5065307;28;20350;-75
2020/12/28 03:37:03;;;;;;;8.02;1.25;;;6.20;99.90;;;;;;5066719;28;20232;-76
2020/12/28 03:39:47;;;;;;;2.40;1.10;;;6.20;99.90;;;;;;5067774;28;20327;-75
2020/12/28 03:42:32;;;;;;;1.50;0.82;;;6.20;99.90;;;;;;5070834;28;20199;-76
2020/12/28 03:45:18;;;;;;;2.10;0.90;;;6.20;99.90;;;;;;5059757;28;20208;-75
2020/12/28 03:48:03;;;;;;;1.42;0.80;;;6.20;99.90;;;;;;5064037;28;20282;-75
2020/12/28 03:50:48;;;;;;;1.88;0.90;;;6.20;99.90;;;;;;5060605;28;20632;-76
2020/12/28 03:53:33;;;;;;;1.50;0.90;;;6.20;99.90;;;;;;5060512;28;20203;-75
2020/12/28 03:56:19;;;;;;;1.20;0.70;;;6.20;99.90;;;;;;5058053;28;20208;-75
2020/12/28 03:59:04;;;;;;;2.10;1.00;;;6.20;99.90;;;;;;5065598;28;20280;-75
2020/12/28 04:01:50;;;;;;;1.60;0.90;;;6.10;99.90;;;;;;5057112;28;20584;-75
2020/12/28 04:04:36;;;;;;;2.40;1.00;;;6.20;99.90;;;;;;5056568;28;20784;-75
2020/12/28 04:07:21;;;;;;;1.35;0.88;;;6.20;99.90;;;;;;5068413;28;20196;-76
2020/12/28 04:10:06;;;;;;;1.55;0.77;;;6.20;99.90;;;;;;5061123;28;20251;-75
2020/12/28 04:12:51;;;;;;;1.70;0.90;;;6.20;99.90;;;;;;5061848;28;20204;-75
2020/12/28 04:15:36;;;;;;;1.38;0.75;;;6.20;99.90;;;;;;5056248;28;20702;-75
2020/12/28 04:18:22;;;;;;;1.30;0.73;;;6.20;99.90;;;;;;5058582;28;20209;-74
2020/12/28 04:21:07;;;;;;;2.00;0.80;;;6.20;99.90;;;;;;5062454;28;20235;-75
2020/12/28 04:23:52;;;;;;;1.67;0.90;;;6.10;99.90;;;;;;5061643;28;20677;-76
2020/12/28 04:26:37;;;;;;;1.50;0.70;;;6.20;99.90;;;;;;5058198;28;20258;-76
2020/12/28 04:29:22;;;;;;;1.45;0.82;;;6.20;99.90;;;;;;5059802;28;20256;-75
2020/12/28 04:32:07;;;;;;;1.70;1.00;;;6.20;99.90;;;;;;5060873;28;20565;-76
2020/12/28 04:34:53;;;;;;;2.03;0.70;;;6.30;99.90;;;;;;5061096;28;20294;-76
2020/12/28 04:37:38;;;;;;;1.52;0.98;;;6.30;99.90;;;;;;5060711;28;20236;-75
2020/12/28 04:40:24;;;;;;;1.63;0.90;;;6.20;99.90;;;;;;5058037;28;20548;-76
2020/12/28 04:43:12;;;;;;;1.75;0.98;;;6.30;99.90;;;;;;5063635;28;20220;-75
2020/12/28 04:46:01;;;;;;;1.75;0.98;;;6.30;99.90;;;;;;5057580;28;20196;-76
2020/12/28 04:48:48;;;;;;;1.40;0.80;;;6.30;99.90;;;;;;5057108;28;20244;-75
2020/12/28 04:51:34;;;;;;;1.65;0.90;;;6.30;99.90;;;;;;5059753;28;20247;-75
2020/12/28 04:54:19;;;;;;;1.80;0.85;;;6.30;99.90;;;;;;5059135;28;20843;-75
2020/12/28 04:57:05;;;;;;;1.23;0.70;;;6.30;99.90;;;;;;5061105;28;20402;-75
2020/12/28 04:59:54;;;;;;;1.30;0.70;;;6.20;99.90;;;;;;5058591;28;20274;-76
2020/12/28 05:02:41;;;;;;;1.27;0.68;;;6.20;99.90;;;;;;5059104;28;20315;-75
2020/12/28 05:05:26;;;;;;;1.35;0.80;;;6.20;99.90;;;;;;5060265;28;20203;-75
2020/12/28 05:08:12;;;;;;;1.80;1.00;;;6.20;99.90;;;;;;5061360;28;20300;-75
2020/12/28 05:11:06;;;;;;;1.80;0.90;;;6.30;99.90;;;;;;5059518;28;20302;-75
2020/12/28 05:13:51;;;;;;;1.30;0.60;;;6.40;99.90;;;;;;5058814;28;20228;-76
2020/12/28 05:16:37;;;;;;;1.58;0.90;;;6.30;99.90;;;;;;5061639;28;20901;-76
2020/12/28 05:19:22;;;;;;;2.95;1.17;;;6.30;99.90;;;;;;5055430;28;20277;-76
2020/12/28 05:22:08;;;;;;;1.20;0.70;;;6.30;99.90;;;;;;5061231;28;20599;-76
2020/12/28 05:24:54;;;;;;;1.40;0.80;;;6.40;99.90;;;;;;5058372;28;20197;-75
2020/12/28 05:27:40;;;;;;;1.42;0.88;;;6.40;99.90;;;;;;5058931;28;20285;-75
2020/12/28 05:30:26;;;;;;;1.90;0.98;;;6.30;99.90;;;;;;5056832;28;20243;-76
2020/12/28 05:33:12;;;;;;;2.15;1.00;;;6.20;99.90;;;;;;5060143;28;20672;-76
2020/12/28 05:35:57;;;;;;;1.60;1.00;;;6.10;99.90;;;;;;5053622;28;20200;-76
2020/12/28 05:38:44;;;;;;;1.80;0.93;;;6.00;99.90;;;;;;5053686;28;20683;-75
2020/12/28 05:41:30;;;;;;;1.70;0.85;;;6.00;99.90;;;;;;5060862;28;20293;-76
2020/12/28 05:44:15;;;;;;;5.15;0.80;;;6.00;99.90;;;;;;5060015;28;20211;-75
2020/12/28 05:47:03;;;;;;;3.90;1.10;;;6.00;99.90;;;;;;5058681;28;20243;-75
2020/12/28 05:49:49;;;;;;;1.30;0.70;;;6.00;99.90;;;;;;5054911;28;20278;-76
2020/12/28 05:52:37;;;;;;;1.38;0.80;;;5.90;99.90;;;;;;5056541;28;20714;-76
2020/12/28 05:55:24;;;;;;;1.40;0.77;;;6.00;99.90;;;;;;5056568;28;20225;-76
2020/12/28 05:58:11;;;;;;;1.48;0.80;;;6.00;99.90;;;;;;5054159;28;20208;-75
2020/12/28 06:00:56;;;;;;;3.08;0.90;;;5.90;99.90;;;;;;5058328;28;20789;-76
2020/12/28 06:03:42;;;;;;;1.42;0.85;;;5.90;99.90;;;;;;5060802;28;20235;-75
2020/12/28 06:06:28;;;;;;;1.65;1.00;;;5.90;99.90;;;;;;5060278;28;20200;-75
2020/12/28 06:09:16;;;;;;;1.60;1.13;;;5.90;99.90;;;;;;5059830;28;20315;-76
2020/12/28 06:12:02;;;;;;;5.80;0.77;;;6.00;99.90;;;;;;5065967;28;20672;-76
2020/12/28 06:14:48;;;;;;;1.50;0.80;;;6.00;99.90;;;;;;5062725;28;20227;-75
2020/12/28 06:17:35;;;;;;;4.22;2.92;;;6.00;99.90;;;;;;5062197;28;20690;-75
2020/12/28 06:20:30;;;;;;;4.47;2.67;;;6.00;99.90;;;;;;5056409;28;20745;-75
2020/12/28 06:23:24;;;;;;;5.28;3.03;;;6.10;99.90;;;;;;5062267;28;20672;-76
2020/12/28 06:26:18;;;;;;;6.45;4.03;;;6.10;99.90;;;;;;5062502;28;20714;-75
2020/12/28 06:29:05;;;;;;;8.82;6.10;;;6.20;99.90;;;;;;5060489;28;20275;-75
2020/12/28 06:31:51;;;;;;;7.93;4.57;;;6.20;99.90;;;;;;5055074;28;20193;-75
2020/12/28 06:34:36;;;;;;;6.47;4.60;;;6.20;99.90;;;;;;5059221;28;20270;-76
2020/12/28 06:37:27;;;;;;;6.97;5.00;;;6.20;99.90;;;;;;5060629;28;20796;-76
2020/12/28 06:40:13;;;;;;;6.10;4.60;;;6.20;99.90;;;;;;5062592;28;20769;-75
2020/12/28 06:43:09;;;;;;;7.30;5.55;;;6.10;99.90;;;;;;5061418;28;20235;-75
2020/12/28 06:45:55;;;;;;;4.70;3.95;;;6.10;99.90;;;;;;5067151;28;20204;-76
2020/12/28 06:48:44;;;;;;;9.32;5.38;;;6.10;99.90;;;;;;5059642;28;20226;-76
2020/12/28 06:51:29;;;;;;;3.42;2.40;;;6.10;99.90;;;;;;5070029;28;20278;-76
2020/12/28 06:54:22;;;;;;;3.72;2.80;;;6.20;99.90;;;;;;5060412;28;20370;-76
2020/12/28 06:57:08;;;;;;;3.22;2.70;;;6.20;99.90;;;;;;5062238;28;20682;-74
2020/12/28 06:59:53;;;;;;;4.72;2.85;;;6.10;99.90;;;;;;5059779;28;20223;-76
2020/12/28 07:02:38;;;;;;;3.05;2.33;;;6.20;99.90;;;;;;5058829;28;20221;-76
2020/12/28 07:05:26;;;;;;;2.00;1.50;;;6.20;99.90;;;;;;5065341;28;20197;-76
2020/12/28 07:08:11;;;;;;;2.30;1.88;;;6.20;99.90;;;;;;5064455;28;20204;-76
2020/12/28 07:10:58;;;;;;;3.03;2.08;;;6.20;99.90;;;;;;5060919;28;20421;-75
2020/12/28 07:13:44;;;;;;;2.60;1.52;;;6.20;99.90;;;;;;5062040;28;20297;-76
2020/12/28 07:16:29;;;;;;;2.53;1.60;;;6.20;99.90;;;;;;5064178;28;20220;-76
2020/12/28 07:19:17;;;;;;;2.00;1.27;;;6.20;99.90;;;;;;5069885;28;20224;-76
2020/12/28 07:22:03;;;;;;;2.50;1.70;;;6.20;99.90;;;;;;5063806;28;20208;-76
2020/12/28 07:24:49;;;;;;;1.98;1.52;;;6.10;99.90;;;;;;5060384;28;20252;-76
2020/12/28 07:27:35;;;;;;;1.88;1.45;;;6.20;99.90;;;;;;5061663;28;20270;-76
2020/12/28 07:30:20;;;;;;;2.40;1.88;;;6.10;99.90;;;;;;5059233;28;20593;-75
2020/12/28 07:33:05;;;;;;;2.25;1.50;;;6.10;99.90;;;;;;5067600;28;20204;-76
2020/12/28 07:36:02;;;;;;;3.05;2.30;;;6.10;99.90;;;;;;5064539;28;20591;-76
2020/12/28 07:38:49;;;;;;;3.03;2.30;;;6.10;99.90;;;;;;5063105;28;20256;-75
2020/12/28 07:41:36;;;;;;;2.58;1.90;;;6.10;99.90;;;;;;5063129;28;20244;-76
2020/12/28 07:44:22;;;;;;;2.92;1.90;;;6.00;99.90;;;;;;5060887;28;20284;-75
2020/12/28 07:47:13;;;;;;;2.10;1.50;;;6.10;99.90;;;;;;5065515;28;20212;-76
2020/12/28 07:50:02;;;;;;;3.50;2.40;;;6.20;99.90;;;;;;5059596;28;20219;-76
2020/12/28 07:52:53;;;;;;;4.15;2.03;;;6.20;99.90;;;;;;5064065;28;20204;-76
2020/12/28 07:55:45;;;;;;;2.85;2.00;;;6.10;99.90;;;;;;5062187;28;20739;-76
2020/12/28 07:58:43;;;;;;;2.22;1.75;;;6.00;99.90;;;;;;5058442;28;20208;-76
2020/12/28 08:01:34;;;;;;;2.80;1.58;;;6.00;99.90;;;;;;5066235;28;20619;-76
2020/12/28 08:04:23;;;;;;;2.88;1.85;;;6.00;99.90;;;;;;5065887;28;20277;-75
2020/12/28 08:07:08;;;;;;;2.00;1.60;;;6.00;99.90;;;;;;5062359;28;20228;-75
2020/12/28 08:09:54;;;;;;;2.27;1.33;;;6.00;99.90;;;;;;5063109;28;20275;-75
2020/12/28 08:12:51;;;;;;;4.10;1.30;;;6.00;99.90;;;;;;5068808;28;20517;-76
2020/12/28 08:15:36;;;;;;;2.10;1.60;;;5.80;99.90;;;;;;5064317;28;20248;-75
2020/12/28 08:18:22;;;;;;;2.10;1.40;;;5.80;99.90;;;;;;5055148;28;20238;-75
2020/12/28 08:21:07;;;;;;;4.63;1.50;;;5.90;99.90;;;;;;5064206;28;20316;-76
2020/12/28 08:23:53;;;;;;;2.42;1.30;;;5.90;99.90;;;;;;5060980;28;20216;-76
2020/12/28 08:26:43;;;;;;;1.92;1.23;;;5.90;99.90;;;;;;5061578;28;20207;-76
2020/12/28 08:29:30;;;;;;;2.50;1.20;;;6.00;99.90;;;;;;5066508;28;20219;-75
2020/12/28 08:32:15;;;;;;;1.90;1.40;;;5.90;99.90;;;;;;5054434;28;21050;-76
2020/12/28 08:35:02;;;;;;;2.60;1.27;;;5.90;99.90;;;;;;5053090;28;20263;-76
2020/12/28 08:37:48;;;;;;;1.80;1.30;;;6.00;99.90;;;;;;5063784;28;20671;-76
2020/12/28 08:40:33;;;;;;;2.95;1.23;;;6.10;99.90;;;;;;5068970;28;20232;-76
2020/12/28 08:43:18;;;;;;;2.00;1.42;;;6.10;99.90;;;;;;5065716;28;20585;-75
2020/12/28 08:46:06;;;;;;;10.82;4.57;;;6.10;99.90;;;;;;5063359;28;20204;-75
2020/12/28 08:48:51;;;;;;;5.90;3.13;;;6.00;99.90;;;;;;5059275;28;20274;-76
2020/12/28 08:51:36;;;;;;;2.85;2.08;;;6.00;99.90;;;;;;5064807;28;20231;-76
2020/12/28 08:54:26;;;;;;;3.10;1.73;;;6.00;99.90;;;;;;5067147;28;20211;-76
2020/12/28 08:57:21;;;;;;;3.05;2.05;;;6.00;99.90;;;;;;5062448;28;20318;-76
2020/12/28 09:00:06;;;;;;;3.72;1.65;;;6.10;99.90;;;;;;5061093;28;20231;-76
2020/12/28 09:02:54;;;;;;;2.83;1.60;;;6.00;99.90;;;;;;5057499;28;20219;-77
2020/12/28 09:05:39;;;;;;;2.60;2.13;;;6.10;99.90;;;;;;5067802;28;20211;-76
2020/12/28 09:08:24;;;;;;;2.75;2.00;;;6.10;99.90;;;;;;5067591;28;20623;-77
2020/12/28 09:11:09;;;;;;;2.45;1.75;;;6.20;99.90;;;;;;5059577;28;20388;-77
2020/12/28 09:13:56;;;;;;;3.97;1.70;;;6.30;99.90;;;;;;5058614;28;20209;-76
2020/12/28 09:16:41;;;;;;;2.80;1.70;;;6.40;99.90;;;;;;5060007;28;20208;-76
2020/12/28 09:19:27;;;;;;;3.05;1.75;;;6.50;99.90;;;;;;5061037;28;20228;-76
2020/12/28 09:22:12;;;;;;;2.70;1.35;;;6.50;99.90;;;;;;5066095;28;20246;-76
2020/12/28 09:24:57;;;;;;;11.38;1.90;;;6.50;99.90;;;;;;5063683;28;20242;-77
2020/12/28 09:27:42;;;;;;;3.60;2.20;;;6.50;99.90;;;;;;5055585;28;20212;-76
2020/12/28 09:30:46;;;;;;;3.33;1.90;;;6.60;99.90;;;;;;5082036;27;20890;-76
2020/12/28 09:33:33;;;;;;;5.30;3.45;;;6.50;99.90;;;;;;5081817;28;20295;-76
2020/12/28 09:36:21;;;;;;;3.70;2.75;;;6.50;99.90;;;;;;5083809;28;20203;-76
2020/12/28 09:39:06;;;;;;;4.10;2.17;;;6.40;99.90;;;;;;5081236;28;20250;-76
2020/12/28 09:41:51;;;;;;;2.63;2.22;;;6.40;99.90;;;;;;5072171;28;20770;-76
2020/12/28 09:44:36;;;;;;;3.35;2.10;;;6.40;99.90;;;;;;5082685;28;20250;-76
2020/12/28 09:47:22;;;;;;;3.88;2.53;;;6.60;99.90;;;;;;5084946;28;20242;-76
2020/12/28 09:50:07;;;;;;;3.17;2.10;;;6.60;99.90;;;;;;5083538;28;20703;-77
2020/12/28 09:52:52;;;;;;;4.65;2.95;;;6.70;99.90;;;;;;5076931;28;20449;-76
2020/12/28 09:55:37;;;;;;;5.78;2.58;;;6.70;99.90;;;;;;5072680;28;20250;-76
2020/12/28 09:58:22;;;;;;;3.80;2.70;;;6.80;99.90;;;;;;5078030;28;20257;-76
2020/12/28 10:01:07;;;;;;;3.25;2.30;;;6.80;99.90;;;;;;5080151;28;20270;-76
2020/12/28 10:03:53;;;;;;;2.92;2.10;;;6.80;99.90;;;;;;5082857;28;20207;-78
2020/12/28 10:06:39;;;;;;;2.38;1.85;;;6.80;99.90;;;;;;5078467;28;20220;-76
2020/12/28 10:09:24;;;;;;;2.70;2.40;;;6.90;99.90;;;;;;5073771;28;20592;-76
2020/12/28 10:12:09;;;;;;;7.32;2.55;;;7.00;99.90;;;;;;5080748;28;20437;-76
2020/12/28 10:14:54;;;;;;;3.57;2.70;;;7.00;99.90;;;;;;5072623;28;20188;-76
2020/12/28 10:17:59;;;;;;;3.70;1.92;;;7.00;99.90;;;;;;5082013;28;20569;-76
2020/12/28 10:20:45;;;;;;;2.30;1.77;;;7.00;99.90;;;;;;5073544;28;20338;-76
2020/12/28 10:23:30;;;;;;;2.20;1.80;;;7.00;99.90;;;;;;5075566;28;20221;-76
2020/12/28 10:26:17;;;;;;;3.20;2.47;;;6.90;99.90;;;;;;5075300;28;20207;-76
2020/12/28 10:29:02;;;;;;;2.05;1.60;;;6.90;99.90;;;;;;5075892;28;20517;-76
2020/12/28 10:31:47;;;;;;;2.28;1.70;;;6.90;99.90;;;;;;5071694;28;20215;-76
2020/12/28 10:34:32;;;;;;;1.85;1.38;;;7.00;99.90;;;;;;5075979;28;20206;-76
2020/12/28 10:37:22;;;;;;;4.07;1.77;;;7.10;99.90;;;;;;5068413;28;20725;-76
2020/12/28 10:40:07;;;;;;;1.98;1.40;;;7.10;99.90;;;;;;5081727;28;20585;-76
2020/12/28 10:42:52;;;;;;;2.42;1.80;;;7.10;99.90;;;;;;5067182;28;20200;-77
2020/12/28 10:45:37;;;;;;;2.13;1.40;;;7.20;99.90;;;;;;5063402;28;20739;-76
2020/12/28 10:48:22;;;;;;;2.20;1.33;;;7.20;99.90;;;;;;5065821;28;20304;-77
2020/12/28 10:51:10;;;;;;;1.67;1.25;;;7.20;99.90;;;;;;5069082;28;20270;-77
2020/12/28 10:53:56;;;;;;;2.10;1.40;;;7.20;99.90;;;;;;5065288;28;20200;-77
2020/12/28 10:56:41;;;;;;;2.33;1.35;;;7.20;99.90;;;;;;5063635;28;20422;-77
2020/12/28 10:59:26;;;;;;;2.30;1.38;;;7.10;99.90;;;;;;5062438;28;20221;-76
2020/12/28 11:02:11;;;;;;;1.70;1.30;;;7.20;99.90;;;;;;5056967;28;20204;-76
2020/12/28 11:04:56;;;;;;;2.10;1.30;;;7.20;99.90;;;;;;5059411;28;20207;-75
2020/12/28 11:07:41;;;;;;;1.92;1.42;;;7.30;99.90;;;;;;5068280;28;20732;-76
2020/12/28 11:10:27;;;;;;;1.88;1.45;;;7.50;99.90;;;;;;5064497;28;20734;-77
2020/12/28 11:13:12;;;;;;;1.77;1.15;;;7.50;99.90;;;;;;5061556;28;20684;-76
2020/12/28 11:15:57;;;;;;;4.40;1.23;;;7.40;99.90;;;;;;5060652;28;20247;-77
2020/12/28 11:18:42;;;;;;;3.03;1.70;;;7.50;99.90;;;;;;5062593;28;20501;-77
2020/12/28 11:21:27;;;;;;;2.10;1.60;;;7.60;99.90;;;;;;5070019;28;20437;-77
2020/12/28 11:24:12;;;;;;;2.37;1.70;;;7.70;99.90;;;;;;5065779;28;21569;-76
2020/12/28 11:26:59;;;;;;;2.47;1.42;;;7.70;99.90;;;;;;5059702;28;20813;-76
2020/12/28 11:29:43;;;;;;;2.83;1.60;;;7.70;99.90;;;;;;5060118;28;20223;-77
2020/12/28 11:32:29;;;;;;;3.73;1.43;;;7.70;99.90;;;;;;5063910;28;20712;-76
2020/12/28 11:35:14;;;;;;;4.07;1.17;;;7.80;99.90;;;;;;5065839;28;20438;-76
2020/12/28 11:37:59;;;;;;;2.73;1.20;;;7.70;99.90;;;;;;5061514;28;20535;-78
2020/12/28 11:40:44;;;;;;;1.80;1.20;;;7.70;99.90;;;;;;5062195;28;20459;-76
2020/12/28 11:43:30;;;;;;;2.90;1.20;;;7.70;99.90;;;;;;5063031;28;20527;-77
2020/12/28 11:46:15;;;;;;;2.20;1.10;;;7.60;99.90;;;;;;5062196;28;21024;-76
2020/12/28 11:49:00;;;;;;;2.20;1.23;;;7.60;99.90;;;;;;5063513;28;20831;-77
2020/12/28 11:51:45;;;;;;;1.85;1.08;;;7.50;99.90;;;;;;5057530;28;20208;-77
2020/12/28 11:54:31;;;;;;;1.97;1.20;;;7.40;99.90;;;;;;5056083;28;20279;-77
2020/12/28 11:57:16;;;;;;;2.10;1.27;;;7.40;99.90;;;;;;5064833;28;20522;-77
2020/12/28 12:00:02;;;;;;;1.50;0.87;;;7.20;99.90;;;;;;5057841;28;20470;-77
2020/12/28 12:02:47;;;;;;;2.17;1.17;;;7.10;99.90;;;;;;5062438;28;20813;-77
2020/12/28 12:05:34;;;;;;;1.80;1.30;;;7.10;99.90;;;;;;5061518;28;20460;-76
2020/12/28 12:08:19;;;;;;;2.23;1.40;;;7.20;99.90;;;;;;5065300;28;20445;-76
2020/12/28 12:11:04;;;;;;;2.00;1.10;;;7.30;99.90;;;;;;5064124;28;20505;-77
2020/12/28 12:13:49;;;;;;;1.92;1.30;;;7.30;99.90;;;;;;5067182;28;20447;-76
2020/12/28 12:16:36;;;;;;;2.03;1.02;;;7.40;99.90;;;;;;5064256;28;20204;-75
2020/12/28 12:19:20;;;;;;;1.87;1.13;;;7.40;99.90;;;;;;5059050;28;20254;-77
2020/12/28 12:22:06;;;;;;;2.97;1.30;;;7.20;99.90;;;;;;5059145;28;20436;-77
2020/12/28 12:24:51;;;;;;;2.20;1.40;;;7.10;99.90;;;;;;5063217;28;20694;-77
2020/12/28 12:27:36;;;;;;;2.15;1.20;;;7.10;99.90;;;;;;5064119;28;20246;-76
2020/12/28 12:30:21;;;;;;;1.95;1.23;;;7.10;99.90;;;;;;5064796;28;20215;-76
2020/12/28 12:33:07;;;;;;;2.03;1.33;;;7.10;99.90;;;;;;5062206;28;20212;-77
2020/12/28 12:35:53;;;;;;;2.30;1.17;;;7.20;99.90;;;;;;5066925;28;20240;-77
2020/12/28 12:38:38;;;;;;;2.45;1.80;;;7.20;99.90;;;;;;5059656;28;20235;-76
2020/12/28 12:41:23;;;;;;;1.85;1.02;;;7.30;99.90;;;;;;5064504;28;20203;-77
2020/12/28 12:44:08;;;;;;;2.10;1.30;;;7.30;99.90;;;;;;5068575;28;20255;-78
2020/12/28 12:46:53;;;;;;;2.70;1.90;;;7.40;99.90;;;;;;5065079;28;20219;-77
2020/12/28 12:49:39;;;;;;;2.70;1.73;;;7.20;99.90;;;;;;5067484;28;20283;-78
2020/12/28 12:52:24;;;;;;;3.15;1.85;;;7.20;99.90;;;;;;5065596;28;20687;-77
2020/12/28 12:55:09;;;;;;;5.22;2.38;;;7.30;99.90;;;;;;5071008;28;20211;-77
2020/12/28 12:57:54;;;;;;;2.72;2.00;;;7.30;99.90;;;;;;5059125;28;20268;-76
2020/12/28 13:00:39;;;;;;;2.80;2.15;;;7.30;99.90;;;;;;5054581;28;20623;-76
2020/12/28 13:03:25;;;;;;;4.75;2.50;;;7.30;99.90;;;;;;5050431;28;20205;-76
2020/12/28 13:06:10;;;;;;;3.28;2.03;;;7.20;99.90;;;;;;5068363;28;20287;-75
2020/12/28 13:08:55;;;;;;;2.75;1.85;;;7.10;99.90;;;;;;5056640;28;20203;-77
2020/12/28 13:11:41;;;;;;;2.90;1.70;;;7.10;99.90;;;;;;5073458;28;20711;-75
2020/12/28 13:14:26;;;;;;;3.17;1.50;;;6.90;99.90;;;;;;5053479;28;20317;-76
2020/12/28 13:17:11;;;;;;;5.25;1.40;;;6.50;99.90;;;;;;5069965;28;20470;-75
2020/12/28 13:19:56;;;;;;;2.00;1.00;;;6.30;99.90;;;;;;5069654;28;20587;-76
2020/12/28 13:22:42;;;;;;;1.65;1.05;;;6.00;99.90;;;;;;5062916;28;20199;-77
2020/12/28 13:25:27;;;;;;;1.65;1.00;;;5.90;99.90;;;;;;5057999;28;20235;-77
2020/12/28 13:28:13;;;;;;;4.25;1.05;;;5.70;99.90;;;;;;5059085;28;20200;-76
2020/12/28 13:30:58;;;;;;;1.83;0.90;;;5.70;99.90;;;;;;5055873;28;20233;-76
2020/12/28 13:33:43;;;;;;;1.40;0.90;;;5.60;99.90;;;;;;5064305;28;20246;-75
2020/12/28 13:36:30;;;;;;;2.10;0.90;;;5.60;99.90;;;;;;5053223;28;20897;-76
2020/12/28 13:39:16;;;;;;;2.00;1.00;;;5.50;99.90;;;;;;5067082;28;20227;-76
2020/12/28 13:42:02;;;;;;;1.65;1.05;;;5.50;99.90;;;;;;5068537;28;20205;-77
2020/12/28 13:44:46;;;;;;;1.60;1.00;;;5.40;99.90;;;;;;5069141;28;20615;-77
2020/12/28 13:47:34;;;;;;;1.60;0.90;;;5.30;99.90;;;;;;5061721;28;20197;-78
2020/12/28 13:50:19;;;;;;;1.38;0.80;;;5.30;99.90;;;;;;5063621;28;20973;-75
2020/12/28 13:53:04;;;;;;;1.83;0.90;;;5.30;99.90;;;;;;5059551;28;20274;-76
2020/12/28 13:55:50;;;;;;;1.50;0.70;;;5.30;99.90;;;;;;5053555;28;20461;-76
2020/12/28 13:58:35;;;;;;;1.45;0.77;;;5.40;99.90;;;;;;5062363;28;20215;-76
2020/12/28 14:01:20;;;;;;;2.05;0.80;;;5.50;99.90;;;;;;5063727;28;20200;-76
2020/12/28 14:04:05;;;;;;;1.98;1.13;;;5.60;99.90;;;;;;5065830;28;20296;-76
2020/12/28 14:06:50;;;;;;;1.85;1.00;;;5.70;99.90;;;;;;5056830;28;20240;-76
2020/12/28 14:09:36;;;;;;;2.10;1.20;;;5.80;99.90;;;;;;5063440;28;20232;-78
2020/12/28 14:12:22;;;;;;;1.90;1.00;;;5.80;99.90;;;;;;5067084;28;20231;-77
2020/12/28 14:15:07;;;;;;;2.20;1.10;;;5.80;99.90;;;;;;5063350;28;20745;-77
2020/12/28 14:17:52;;;;;;;1.73;1.13;;;5.90;99.90;;;;;;5063223;28;20227;-75
2020/12/28 14:20:37;;;;;;;2.10;0.93;;;5.90;99.90;;;;;;5061655;28;20220;-77
2020/12/28 14:23:23;;;;;;;2.53;1.20;;;5.70;99.90;;;;;;5068139;28;20200;-77
2020/12/28 14:26:10;;;;;;;2.67;1.20;;;5.80;99.90;;;;;;5071874;28;20204;-76
2020/12/28 14:28:57;;;;;;;2.70;1.20;;;5.70;99.90;;;;;;5076908;28;20219;-77
2020/12/28 14:31:47;;;;;;;2.33;1.60;;;5.80;99.90;;;;;;5075429;28;20284;-77
2020/12/28 14:34:32;;;;;;;3.70;1.45;;;5.80;99.90;;;;;;5071112;28;20199;-76
2020/12/28 14:37:17;;;;;;;3.03;1.67;;;5.80;99.90;;;;;;5064210;28;20292;-75